createdAt,value
2023-04-10T00:00:38.214Z,118.20
2023-04-10T00:03:06.135Z,115.70
2023-04-10T00:05:33.384Z,116.13
2023-04-10T00:08:00.758Z,115.10
2023-04-10T00:10:30.498Z,119.97
2023-04-10T00:12:59.063Z,115.90
2023-04-10T00:15:26.094Z,127.73
2023-04-10T00:17:55.489Z,124.40
2023-04-10T00:20:26.494Z,129.83
2023-04-10T00:22:53.714Z,128.97
2023-04-10T00:25:23.073Z,125.37
2023-04-10T00:27:50.461Z,124.70
2023-04-10T00:30:17.501Z,119.67
2023-04-10T00:32:44.537Z,125.27
2023-04-10T00:35:11.603Z,125.47
2023-04-10T00:37:38.813Z,132.13
2023-04-10T00:40:06.825Z,136.17
2023-04-10T00:42:34.470Z,140.53
2023-04-10T00:45:02.918Z,138.87
2023-04-10T00:47:30.902Z,136.57
2023-04-10T00:49:58.487Z,142.40
2023-04-10T00:52:26.834Z,138.73
2023-04-10T00:54:53.982Z,148.50
2023-04-10T00:57:21.441Z,133.93
2023-04-10T00:59:49.127Z,142.77
2023-04-10T01:02:16.418Z,143.67
2023-04-10T01:04:44.472Z,147.80
2023-04-10T01:07:35.642Z,142.70
2023-04-10T01:10:17.988Z,147.80
2023-04-10T01:13:06.007Z,146.23
2023-04-10T01:15:49.694Z,150.17
2023-04-10T01:18:21.976Z,148.43
2023-04-10T01:20:49.427Z,151.87
2023-04-10T01:23:36.791Z,154.73
2023-04-10T01:26:05.853Z,152.97
2023-04-10T01:28:51.316Z,152.37
2023-04-10T01:31:34.044Z,158.23
2023-04-10T01:34:07.750Z,165.60
2023-04-10T01:36:40.588Z,164.90
2023-04-10T01:39:09.899Z,153.57
2023-04-10T01:41:39.748Z,157.50
2023-04-10T01:44:08.561Z,164.60
2023-04-10T01:46:38.675Z,167.80
2023-04-10T01:49:06.337Z,163.73
2023-04-10T01:51:35.951Z,170.53
2023-04-10T01:54:09.254Z,168.13
2023-04-10T01:56:36.769Z,173.40
2023-04-10T01:59:04.130Z,173.03
2023-04-10T02:01:31.522Z,182.15
2023-04-10T02:04:00.454Z,190.00
2023-04-10T02:06:55.128Z,184.40
2023-04-10T02:09:28.873Z,186.87
2023-04-10T02:12:02.480Z,194.70
2023-04-10T02:14:32.857Z,188.50
2023-04-10T02:17:02.749Z,200.43
2023-04-10T02:19:32.164Z,203.07
2023-04-10T02:22:00.035Z,200.07
2023-04-10T02:24:27.738Z,195.55
2023-04-10T02:26:54.897Z,201.73
2023-04-10T02:29:23.379Z,201.57
2023-04-10T02:31:51.029Z,201.63
2023-04-10T02:34:19.526Z,198.77
2023-04-10T02:36:46.512Z,197.80
2023-04-10T02:39:13.719Z,195.45
2023-04-10T02:41:51.062Z,210.27
2023-04-10T02:44:18.412Z,204.57
2023-04-10T02:46:46.636Z,203.23
2023-04-10T02:49:14.712Z,215.02
2023-04-10T02:51:41.728Z,215.27
2023-04-10T02:54:09.176Z,216.17
2023-04-10T02:56:39.344Z,212.27
2023-04-10T02:59:06.393Z,222.45
2023-04-10T03:01:34.525Z,225.20
2023-04-10T03:04:03.982Z,220.70
2023-04-10T03:06:36.405Z,210.88
2023-04-10T03:09:03.896Z,209.00
2023-04-10T03:11:31.010Z,208.63
2023-04-10T03:14:01.150Z,209.05
2023-04-10T03:16:28.215Z,205.90
2023-04-10T03:18:56.772Z,224.68
2023-04-10T03:21:23.995Z,221.82
2023-04-10T03:23:51.403Z,220.02
2023-04-10T03:26:18.879Z,235.23
2023-04-10T03:28:45.935Z,236.70
2023-04-10T03:31:13.180Z,229.05
2023-04-10T03:33:42.765Z,235.48
2023-04-10T03:36:11.577Z,226.68
2023-04-10T03:38:38.809Z,233.48
2023-04-10T03:41:09.275Z,233.60
2023-04-10T03:43:36.598Z,226.18
2023-04-10T03:46:04.675Z,230.40
2023-04-10T03:48:32.481Z,235.05
2023-04-10T03:50:59.750Z,224.73
2023-04-10T03:53:26.999Z,230.98
2023-04-10T03:55:55.823Z,216.32
2023-04-10T03:58:24.934Z,236.73
2023-04-10T04:00:54.102Z,245.98
2023-04-10T04:03:33.041Z,225.55
2023-04-10T04:06:00.370Z,226.95
2023-04-10T04:08:31.852Z,242.57
2023-04-10T04:11:16.604Z,243.50
2023-04-10T04:14:09.865Z,225.10
2023-04-10T04:16:57.363Z,230.35
2023-04-10T04:19:53.987Z,230.63
2023-04-10T04:22:39.870Z,252.20
2023-04-10T04:25:20.193Z,244.43
2023-04-10T04:28:16.215Z,236.30
2023-04-10T04:30:57.474Z,231.95
2023-04-10T04:33:43.255Z,250.30
2023-04-10T04:36:31.283Z,268.48
2023-04-10T04:39:16.657Z,268.98
2023-04-10T04:41:54.500Z,270.23
2023-04-10T04:44:37.510Z,255.77
2023-04-10T04:47:43.359Z,286.65
2023-04-10T04:50:26.569Z,297.02
2023-04-10T04:53:20.043Z,296.95
2023-04-10T04:56:07.774Z,313.70
2023-04-10T04:58:47.508Z,320.42
2023-04-10T05:01:28.127Z,340.10
2023-04-10T05:04:11.647Z,341.02
2023-04-10T05:06:58.413Z,340.23
2023-04-10T05:09:34.753Z,356.77
2023-04-10T05:12:20.493Z,371.05
2023-04-10T05:14:59.006Z,392.40
2023-04-10T05:17:53.254Z,378.88
2023-04-10T05:20:47.634Z,411.08
2023-04-10T05:23:20.571Z,413.40
2023-04-10T05:25:53.518Z,370.08
2023-04-10T05:28:32.795Z,343.83
2023-04-10T05:31:19.059Z,356.42
2023-04-10T05:34:03.290Z,357.90
2023-04-10T05:36:45.451Z,341.30
2023-04-10T05:39:28.049Z,340.52
2023-04-10T05:42:13.732Z,318.13
2023-04-10T05:44:47.858Z,352.80
2023-04-10T05:47:47.191Z,360.05
2023-04-10T05:50:36.522Z,326.58
2023-04-10T05:53:19.306Z,353.70
2023-04-10T05:56:05.540Z,291.45
2023-04-10T05:58:56.104Z,259.00
2023-04-10T06:01:40.177Z,240.43
2023-04-10T06:04:07.869Z,233.90
2023-04-10T06:06:39.825Z,230.55
2023-04-10T06:09:07.239Z,225.55
2023-04-10T06:11:34.573Z,211.23
2023-04-10T06:14:02.168Z,207.95
2023-04-10T06:16:41.114Z,213.90
2023-04-10T06:19:08.929Z,212.27
2023-04-10T06:21:36.840Z,207.00
2023-04-10T06:24:04.326Z,186.27
2023-04-10T06:26:31.511Z,190.13
2023-04-10T06:28:58.517Z,200.77
2023-04-10T06:31:25.863Z,189.02
2023-04-10T06:33:52.924Z,187.80
2023-04-10T06:36:20.938Z,190.00
2023-04-10T06:38:55.661Z,181.68
2023-04-10T06:41:23.999Z,177.93
2023-04-10T06:43:54.677Z,178.30
2023-04-10T06:46:21.844Z,164.27
2023-04-10T06:48:48.768Z,163.15
2023-04-10T06:51:16.171Z,154.07
2023-04-10T06:53:43.274Z,151.13
2023-04-10T06:56:10.766Z,176.77
2023-04-10T06:58:37.987Z,154.60
2023-04-10T07:01:05.584Z,160.05
2023-04-10T07:03:32.942Z,149.50
2023-04-10T07:06:02.152Z,143.18
2023-04-10T07:08:29.194Z,139.43
2023-04-10T07:10:58.422Z,144.18
2023-04-10T07:13:26.001Z,143.30
2023-04-10T07:15:53.088Z,138.98
2023-04-10T07:18:20.360Z,152.63
2023-04-10T07:20:48.662Z,130.95
2023-04-10T07:23:16.304Z,140.95
2023-04-10T07:25:43.896Z,135.63
2023-04-10T07:28:11.339Z,134.30
2023-04-10T07:30:39.329Z,142.93
2023-04-10T07:33:08.100Z,141.77
2023-04-10T07:35:35.493Z,139.48
2023-04-10T07:38:03.150Z,144.93
2023-04-10T07:40:30.456Z,150.07
2023-04-10T07:42:57.451Z,154.10
2023-04-10T07:45:24.564Z,158.38
2023-04-10T07:47:51.752Z,163.25
2023-04-10T07:50:18.919Z,174.02
2023-04-10T07:52:46.394Z,165.52
2023-04-10T07:55:13.532Z,200.70
2023-04-10T07:57:42.218Z,171.13
2023-04-10T08:00:10.242Z,160.27
2023-04-10T08:02:41.338Z,157.10
2023-04-10T08:05:08.877Z,158.30
2023-04-10T08:07:36.589Z,171.98
2023-04-10T08:10:04.012Z,166.25
2023-04-10T08:12:34.175Z,173.90
2023-04-10T08:15:01.692Z,186.77
2023-04-10T08:17:28.917Z,183.73
2023-04-10T08:19:56.349Z,178.27
2023-04-10T08:22:23.397Z,183.40
2023-04-10T08:24:50.678Z,183.10
2023-04-10T08:27:17.928Z,184.93
2023-04-10T08:29:45.154Z,182.25
2023-04-10T08:32:12.346Z,176.88
2023-04-10T08:34:39.435Z,180.18
2023-04-10T08:37:12.305Z,180.13
2023-04-10T08:39:39.838Z,186.65
2023-04-10T08:42:07.329Z,203.20
2023-04-10T08:44:37.149Z,209.32
2023-04-10T08:47:06.011Z,189.80
2023-04-10T08:49:48.733Z,195.95
2023-04-10T08:52:21.261Z,201.50
2023-04-10T08:54:51.690Z,193.90
2023-04-10T08:57:20.993Z,200.15
2023-04-10T08:59:48.844Z,186.40
2023-04-10T09:02:16.332Z,186.57
2023-04-10T09:04:52.056Z,195.07
2023-04-10T09:07:19.479Z,199.20
2023-04-10T09:09:57.662Z,200.90
2023-04-10T09:12:24.964Z,197.52
2023-04-10T09:14:53.537Z,203.77
2023-04-10T09:17:21.703Z,204.50
2023-04-10T09:19:53.929Z,195.70
2023-04-10T09:22:35.490Z,193.95
2023-04-10T09:25:04.627Z,206.57
2023-04-10T09:27:37.403Z,207.35
2023-04-10T09:30:06.536Z,203.25
2023-04-10T09:32:45.174Z,196.57
2023-04-10T09:35:14.159Z,199.85
2023-04-10T09:37:44.004Z,195.75
2023-04-10T09:40:25.569Z,193.77
2023-04-10T09:42:54.025Z,202.30
2023-04-10T09:45:22.652Z,200.68
2023-04-10T09:48:08.494Z,189.88
2023-04-10T09:50:41.105Z,199.50
2023-04-10T09:53:26.570Z,198.27
2023-04-10T09:55:54.717Z,203.63
2023-04-10T09:58:22.532Z,184.30
2023-04-10T10:00:50.193Z,215.43
2023-04-10T10:03:19.602Z,217.00
2023-04-10T10:05:49.505Z,212.02
2023-04-10T10:08:16.802Z,210.57
2023-04-10T10:10:50.442Z,208.10
2023-04-10T10:13:32.666Z,207.32
2023-04-10T10:16:15.710Z,197.25
2023-04-10T10:19:05.536Z,185.07
2023-04-10T10:21:34.359Z,190.88
2023-04-10T10:24:02.812Z,189.30
2023-04-10T10:26:34.842Z,198.68
2023-04-10T10:29:05.794Z,197.57
2023-04-10T10:31:37.650Z,205.25
2023-04-10T10:34:07.566Z,209.23
2023-04-10T10:36:36.132Z,205.93
2023-04-10T10:39:27.782Z,211.48
2023-04-10T10:42:24.580Z,193.18
2023-04-10T10:44:58.281Z,191.73
2023-04-10T10:47:32.396Z,187.55
2023-04-10T10:50:03.900Z,187.27
2023-04-10T10:52:49.823Z,185.90
2023-04-10T10:55:23.984Z,185.70
2023-04-10T10:57:52.876Z,188.95
2023-04-10T11:00:21.633Z,179.70
2023-04-10T11:03:07.945Z,180.60
2023-04-10T11:05:57.323Z,178.15
2023-04-10T11:08:33.734Z,174.13
2023-04-10T11:11:06.471Z,183.73
2023-04-10T11:13:38.514Z,179.38
2023-04-10T11:16:07.260Z,171.20
2023-04-10T11:18:51.232Z,181.15
2023-04-10T11:21:24.188Z,173.35
2023-04-10T11:23:51.372Z,165.55
2023-04-10T11:26:42.101Z,163.07
2023-04-10T11:29:18.729Z,155.88
2023-04-10T11:31:55.722Z,151.43
2023-04-10T11:34:23.062Z,152.02
2023-04-10T11:36:50.506Z,145.25
2023-04-10T11:39:19.187Z,152.90
2023-04-10T11:41:53.391Z,145.90
2023-04-10T11:44:27.919Z,158.07
2023-04-10T11:46:55.077Z,215.10
2023-04-10T11:49:28.243Z,155.95
2023-04-10T11:51:55.885Z,139.88
2023-04-10T11:54:24.804Z,141.70
2023-04-10T11:57:02.216Z,138.45
2023-04-10T11:59:31.201Z,144.70
2023-04-10T12:02:15.933Z,144.60
2023-04-10T12:04:44.582Z,144.68
2023-04-10T12:07:12.183Z,137.82
2023-04-10T12:09:39.433Z,136.98
2023-04-10T12:12:08.229Z,132.02
2023-04-10T12:14:39.832Z,119.13
2023-04-10T12:17:08.928Z,123.97
2023-04-10T12:19:36.755Z,137.10
2023-04-10T12:22:04.073Z,139.35
2023-04-10T12:24:47.571Z,140.20
2023-04-10T12:27:26.707Z,132.88
2023-04-10T12:29:56.145Z,130.93
2023-04-10T12:32:24.357Z,184.52
2023-04-10T12:35:01.245Z,125.38
2023-04-10T12:37:52.376Z,126.32
2023-04-10T12:40:20.830Z,131.55
2023-04-10T12:42:47.848Z,124.07
2023-04-10T12:45:15.461Z,125.90
2023-04-10T12:47:52.146Z,123.25
2023-04-10T12:50:24.320Z,131.13
2023-04-10T12:53:11.804Z,126.55
2023-04-10T12:55:39.579Z,119.88
2023-04-10T12:58:22.897Z,125.15
2023-04-10T13:00:50.570Z,116.05
2023-04-10T13:03:17.852Z,114.20
2023-04-10T13:05:45.187Z,111.03
2023-04-10T13:08:12.120Z,121.57
2023-04-10T13:10:40.662Z,108.72
2023-04-10T13:13:08.195Z,110.47
2023-04-10T13:15:35.301Z,107.68
2023-04-10T13:18:05.155Z,111.65
2023-04-10T13:20:36.341Z,109.35
2023-04-10T13:23:04.114Z,113.72
2023-04-10T13:25:37.029Z,112.65
2023-04-10T13:28:10.169Z,106.28
2023-04-10T13:30:39.361Z,104.57
2023-04-10T13:33:07.577Z,111.07
2023-04-10T13:35:34.870Z,111.13
2023-04-10T13:38:02.349Z,103.35
2023-04-10T13:40:29.511Z,102.88
2023-04-10T13:42:56.544Z,98.03
2023-04-10T13:45:23.718Z,105.97
2023-04-10T13:47:50.930Z,104.65
2023-04-10T13:50:18.179Z,104.90
2023-04-10T13:52:45.405Z,98.10
2023-04-10T13:55:12.395Z,101.13
2023-04-10T13:57:39.627Z,107.05
2023-04-10T14:00:08.768Z,100.95
2023-04-10T14:02:45.915Z,102.28
2023-04-10T14:05:13.136Z,108.78
2023-04-10T14:07:40.324Z,107.03
2023-04-10T14:10:08.191Z,98.85
2023-04-10T14:12:37.090Z,108.07
2023-04-10T14:15:05.281Z,106.10
2023-04-10T14:17:34.861Z,111.47
2023-04-10T14:20:02.165Z,107.38
2023-04-10T14:22:30.420Z,106.20
2023-04-10T14:25:09.317Z,115.55
2023-04-10T14:27:39.302Z,108.40
2023-04-10T14:30:07.121Z,107.43
2023-04-10T14:32:34.327Z,101.03
2023-04-10T14:35:01.454Z,94.45
2023-04-10T14:37:28.484Z,106.68
2023-04-10T14:39:55.878Z,103.05
2023-04-10T14:42:24.027Z,114.88
2023-04-10T14:44:51.116Z,107.30
2023-04-10T14:47:18.467Z,113.05
2023-04-10T14:49:45.622Z,110.53
2023-04-10T14:52:12.628Z,108.65
2023-04-10T14:54:39.683Z,112.18
2023-04-10T14:57:06.920Z,111.57
2023-04-10T14:59:33.965Z,113.82
2023-04-10T15:02:01.161Z,112.35
2023-04-10T15:04:28.512Z,106.72
2023-04-10T15:06:55.720Z,109.13
2023-04-10T15:09:22.859Z,115.53
2023-04-10T15:11:49.822Z,125.53
2023-04-10T15:14:16.802Z,139.27
2023-04-10T15:16:43.837Z,133.75
2023-04-10T15:19:11.068Z,146.82
2023-04-10T15:21:38.084Z,143.57
2023-04-10T15:24:05.459Z,159.10
2023-04-10T15:26:32.603Z,153.43
2023-04-10T15:29:00.150Z,122.95
2023-04-10T15:31:27.561Z,102.53
2023-04-10T15:33:55.302Z,115.18
2023-04-10T15:36:22.532Z,135.23
2023-04-10T15:38:50.364Z,127.15
2023-04-10T15:41:17.658Z,130.65
2023-04-10T15:43:44.969Z,141.68
2023-04-10T15:46:12.206Z,146.45
2023-04-10T15:48:39.337Z,162.23
2023-04-10T15:51:07.231Z,174.88
2023-04-10T15:53:35.412Z,175.25
2023-04-10T15:56:05.653Z,158.77
2023-04-10T15:58:33.638Z,150.35
2023-04-10T16:01:01.432Z,145.82
2023-04-10T16:03:30.228Z,142.52
2023-04-10T16:05:58.526Z,132.00
2023-04-10T16:08:26.450Z,135.90
2023-04-10T16:10:54.184Z,141.65
2023-04-10T16:13:21.401Z,133.18
2023-04-10T16:15:49.867Z,133.77
2023-04-10T16:18:17.215Z,140.35
2023-04-10T16:20:44.646Z,138.60
2023-04-10T16:23:11.702Z,146.00
2023-04-10T16:25:38.837Z,162.25
2023-04-10T16:28:08.165Z,156.00
2023-04-10T16:30:35.922Z,163.68
2023-04-10T16:33:04.356Z,155.77
2023-04-10T16:35:32.181Z,169.57
2023-04-10T16:37:59.345Z,167.68
2023-04-10T16:40:32.636Z,167.48
2023-04-10T16:43:02.003Z,165.15
2023-04-10T16:45:29.359Z,172.50
2023-04-10T16:47:56.628Z,171.35
2023-04-10T16:50:23.868Z,181.45
2023-04-10T16:52:50.864Z,178.60
2023-04-10T16:55:18.316Z,179.25
2023-04-10T16:57:46.330Z,201.90
2023-04-10T17:00:13.910Z,187.52
2023-04-10T17:02:42.878Z,188.50
2023-04-10T17:05:11.205Z,187.23
2023-04-10T17:07:38.279Z,183.35
2023-04-10T17:10:05.948Z,176.07
2023-04-10T17:12:33.006Z,172.30
2023-04-10T17:15:00.534Z,175.20
2023-04-10T17:17:27.897Z,172.55
2023-04-10T17:19:55.298Z,172.43
2023-04-10T17:22:23.389Z,164.43
2023-04-10T17:24:50.497Z,150.27
2023-04-10T17:27:17.617Z,160.20
2023-04-10T17:29:44.834Z,149.57
2023-04-10T17:32:12.049Z,159.57
2023-04-10T17:34:39.712Z,155.90
2023-04-10T17:37:06.879Z,155.05
2023-04-10T17:39:33.870Z,156.93
2023-04-10T17:42:01.651Z,149.95
2023-04-10T17:44:28.941Z,153.07
2023-04-10T17:46:56.353Z,154.43
2023-04-10T17:49:23.711Z,156.95
2023-04-10T17:51:51.080Z,153.82
2023-04-10T17:54:18.191Z,156.85
2023-04-10T17:56:45.364Z,158.43
2023-04-10T17:59:12.579Z,95.72
2023-04-10T18:01:39.969Z,46.28
2023-04-10T18:04:07.706Z,26.15
2023-04-10T18:06:35.412Z,21.52
2023-04-10T18:09:02.514Z,21.75
2023-04-10T18:11:29.919Z,20.42
2023-04-10T18:13:57.018Z,24.77
2023-04-10T18:16:24.392Z,27.38
2023-04-10T18:18:51.838Z,25.15
2023-04-10T18:21:19.116Z,25.05
2023-04-10T18:23:46.316Z,20.15
2023-04-10T18:26:13.568Z,20.55
2023-04-10T18:28:42.172Z,18.77
2023-04-10T18:31:09.327Z,18.58
2023-04-10T18:33:36.610Z,20.10
2023-04-10T18:36:03.784Z,20.20
2023-04-10T18:38:31.075Z,18.23
2023-04-10T18:40:58.482Z,25.33
2023-04-10T18:43:29.391Z,22.27
2023-04-10T18:45:57.157Z,21.40
2023-04-10T18:48:24.435Z,21.40
2023-04-10T18:50:53.340Z,20.65
2023-04-10T18:53:21.442Z,19.42
2023-04-10T18:55:52.363Z,18.17
2023-04-10T18:58:20.764Z,17.88
2023-04-10T19:00:48.422Z,17.58
2023-04-10T19:03:16.091Z,20.48
2023-04-10T19:05:43.690Z,19.52
2023-04-10T19:08:14.461Z,19.10
2023-04-10T19:10:43.027Z,17.93
2023-04-10T19:13:12.084Z,18.65
2023-04-10T19:15:43.850Z,21.20
2023-04-10T19:18:13.015Z,22.50
2023-04-10T19:20:50.333Z,25.58
2023-04-10T19:23:19.644Z,29.00
2023-04-10T19:25:47.115Z,27.80
2023-04-10T19:28:14.306Z,32.15
2023-04-10T19:30:41.360Z,30.10
2023-04-10T19:33:08.509Z,33.27
2023-04-10T19:35:35.659Z,32.47
2023-04-10T19:38:02.772Z,32.47
2023-04-10T19:40:31.598Z,33.35
2023-04-10T19:43:02.064Z,33.97
2023-04-10T19:45:29.544Z,36.25
2023-04-10T19:47:57.135Z,37.47
2023-04-10T19:50:24.528Z,32.47
2023-04-10T19:52:52.537Z,35.78
2023-04-10T19:55:19.805Z,35.13
2023-04-10T19:57:47.486Z,35.05
2023-04-10T20:00:14.668Z,38.47
2023-04-10T20:02:41.956Z,37.55
2023-04-10T20:05:09.907Z,35.25
2023-04-10T20:07:37.278Z,35.03
2023-04-10T20:10:04.847Z,37.00
2023-04-10T20:12:35.435Z,37.30
2023-04-10T20:15:03.897Z,34.42
2023-04-10T20:17:31.466Z,36.13
2023-04-10T20:19:58.611Z,48.30
2023-04-10T20:22:25.690Z,34.45
2023-04-10T20:24:52.743Z,33.45
2023-04-10T20:27:20.003Z,33.67
2023-04-10T20:29:47.169Z,39.47
2023-04-10T20:32:14.312Z,35.72
2023-04-10T20:34:41.577Z,37.33
2023-04-10T20:37:08.642Z,34.33
2023-04-10T20:39:37.902Z,38.40
2023-04-10T20:42:06.093Z,38.08
2023-04-10T20:44:37.704Z,34.70
2023-04-10T20:47:06.544Z,30.92
2023-04-10T20:49:34.042Z,32.90
2023-04-10T20:52:01.445Z,33.20
2023-04-10T20:54:28.538Z,34.63
2023-04-10T20:56:59.900Z,39.10
2023-04-10T20:59:27.067Z,37.72
2023-04-10T21:01:54.175Z,36.80
2023-04-10T21:04:25.294Z,39.08
2023-04-10T21:06:53.268Z,36.92
2023-04-10T21:09:21.733Z,35.00
2023-04-10T21:11:48.872Z,38.72
2023-04-10T21:14:15.937Z,36.63
2023-04-10T21:16:43.756Z,40.85
2023-04-10T21:19:11.037Z,40.10
2023-04-10T21:21:38.155Z,37.78
2023-04-10T21:24:05.523Z,38.58
2023-04-10T21:26:32.516Z,39.50
2023-04-10T21:28:59.587Z,41.10
2023-04-10T21:31:26.760Z,40.60
2023-04-10T21:33:53.852Z,38.03
2023-04-10T21:36:20.941Z,38.35
2023-04-10T21:38:47.899Z,36.38
2023-04-10T21:41:15.515Z,34.85
2023-04-10T21:43:43.253Z,34.72
2023-04-10T21:46:10.996Z,34.85
2023-04-10T21:48:38.180Z,36.38
2023-04-10T21:51:05.879Z,35.47
2023-04-10T21:53:32.979Z,35.57
2023-04-10T21:56:00.172Z,33.75
2023-04-10T21:58:27.238Z,33.25
2023-04-10T22:00:54.599Z,37.95
2023-04-10T22:03:22.377Z,34.35
2023-04-10T22:05:50.627Z,35.78
2023-04-10T22:08:20.006Z,36.53
2023-04-10T22:10:48.172Z,37.90
2023-04-10T22:13:27.587Z,38.40
2023-04-10T22:15:57.226Z,37.72
2023-04-10T22:18:24.256Z,35.42
2023-04-10T22:20:51.281Z,39.07
2023-04-10T22:23:18.567Z,37.55
2023-04-10T22:25:45.684Z,41.47
2023-04-10T22:28:12.638Z,45.87
2023-04-10T22:30:39.660Z,45.30
2023-04-10T22:33:07.082Z,46.17
2023-04-10T22:35:34.208Z,49.43
2023-04-10T22:38:03.726Z,50.50
2023-04-10T22:40:31.097Z,51.20
2023-04-10T22:42:58.111Z,55.17
2023-04-10T22:45:25.344Z,61.50
2023-04-10T22:47:52.359Z,64.77
2023-04-10T22:50:19.415Z,60.03
2023-04-10T22:52:46.447Z,66.87
2023-04-10T22:55:14.428Z,65.40
2023-04-10T22:57:41.505Z,65.80
2023-04-10T23:00:09.118Z,67.73
2023-04-10T23:02:36.470Z,63.20
2023-04-10T23:05:03.810Z,63.43
2023-04-10T23:07:30.884Z,61.40
2023-04-10T23:09:58.141Z,63.43
2023-04-10T23:12:26.452Z,65.33
2023-04-10T23:14:53.562Z,61.27
2023-04-10T23:17:21.281Z,62.60
2023-04-10T23:19:48.320Z,66.93
2023-04-10T23:22:15.629Z,63.50
2023-04-10T23:24:42.740Z,59.92
2023-04-10T23:27:09.959Z,60.03
2023-04-10T23:29:36.967Z,61.90
2023-04-10T23:32:04.055Z,62.87
2023-04-10T23:34:31.029Z,59.47
2023-04-10T23:36:58.335Z,64.67
2023-04-10T23:39:25.390Z,61.13
2023-04-10T23:41:52.531Z,60.30
2023-04-10T23:44:19.680Z,58.83
2023-04-10T23:46:46.852Z,56.20
2023-04-10T23:49:13.853Z,63.60
2023-04-10T23:51:40.811Z,65.23
2023-04-10T23:54:07.933Z,69.43
2023-04-10T23:56:35.068Z,66.83
2023-04-10T23:59:02.257Z,64.37
